Time;durP1;ratioP1;P1;durP2;ratioP2;P2;SDS_P1;SDS_P2;PMS_P1;PMS_P2;Temp;Humidity;BMP_temperature;BMP_pressure;BME280_temperature;BME280_humidity;BME280_pressure;Samples;Min_cycle;Max_cycle;Signal;HPM_P1;HPM_P2
2023/05/30 00:00:36;;;;;;;6.18;2.60;;;16.50;92.30;;;;;;4978345;28;20506;-56
2023/05/30 00:03:04;;;;;;;6.28;2.83;;;16.50;92.30;;;;;;4971616;28;20081;-56
2023/05/30 00:05:29;;;;;;;6.60;2.70;;;16.40;92.10;;;;;;4972441;28;20034;-55
2023/05/30 00:07:56;;;;;;;5.80;2.85;;;16.40;92.10;;;;;;4976296;28;20023;-56
2023/05/30 00:10:21;;;;;;;11.68;2.60;;;16.30;92.10;;;;;;4975532;28;20034;-58
2023/05/30 00:12:47;;;;;;;8.55;3.35;;;16.30;92.10;;;;;;4996893;22;20466;-52
2023/05/30 00:15:13;;;;;;;9.82;2.42;;;16.30;91.90;;;;;;4966900;28;20113;-51
2023/05/30 00:17:38;;;;;;;6.18;2.80;;;16.20;91.70;;;;;;4975273;28;20022;-52
2023/05/30 00:20:04;;;;;;;6.47;2.50;;;16.20;91.60;;;;;;4977679;28;20070;-52
2023/05/30 00:22:30;;;;;;;4.95;2.38;;;16.10;91.60;;;;;;4969083;28;20035;-53
2023/05/30 00:24:59;;;;;;;6.45;2.50;;;16.10;91.50;;;;;;4975892;28;20031;-57
2023/05/30 00:27:25;;;;;;;5.95;2.42;;;16.10;91.20;;;;;;4975187;28;20039;-58
2023/05/30 00:29:51;;;;;;;8.07;3.20;;;16.00;91.20;;;;;;4982230;28;20037;-57
2023/05/30 00:32:16;;;;;;;11.07;3.67;;;16.00;91.20;;;;;;4979959;28;20077;-58
2023/05/30 00:34:42;;;;;;;8.10;2.80;;;16.00;91.20;;;;;;4967452;28;20043;-58
2023/05/30 00:37:08;;;;;;;6.95;2.90;;;15.90;91.10;;;;;;4975373;28;20498;-56
2023/05/30 00:39:34;;;;;;;5.95;2.95;;;15.90;91.10;;;;;;4975369;28;20023;-59
2023/05/30 00:42:00;;;;;;;4.22;2.25;;;15.90;91.10;;;;;;4975694;28;20029;-58
2023/05/30 00:44:26;;;;;;;8.32;2.75;;;15.90;91.00;;;;;;4972816;28;20127;-57
2023/05/30 00:46:52;;;;;;;10.55;2.65;;;15.80;91.00;;;;;;4990573;28;20022;-58
2023/05/30 00:49:19;;;;;;;6.47;3.00;;;15.70;90.90;;;;;;4974260;28;20030;-56
2023/05/30 00:51:45;;;;;;;6.82;2.60;;;15.70;91.10;;;;;;4975230;28;20061;-61
2023/05/30 00:54:11;;;;;;;11.88;3.28;;;15.70;90.90;;;;;;4973803;28;20033;-59
2023/05/30 00:56:37;;;;;;;16.05;2.55;;;15.70;91.00;;;;;;4975486;28;20039;-57
2023/05/30 00:59:03;;;;;;;20.55;7.13;;;15.70;91.00;;;;;;4990491;28;20027;-56
2023/05/30 01:01:29;;;;;;;10.40;4.10;;;15.60;91.00;;;;;;4975002;28;20031;-56
2023/05/30 01:03:56;;;;;;;8.20;3.20;;;15.60;91.00;;;;;;4974888;28;20019;-58
2023/05/30 01:06:23;;;;;;;16.55;3.00;;;15.60;91.00;;;;;;4975341;28;20506;-57
2023/05/30 01:08:49;;;;;;;9.57;3.35;;;15.60;91.00;;;;;;4975296;28;20430;-58
2023/05/30 01:11:29;;;;;;;8.20;3.10;;;15.60;91.00;;;;;;4974575;28;20030;-59
2023/05/30 01:14:17;;;;;;;7.72;2.58;;;15.50;91.00;;;;;;4974697;28;20023;-59
2023/05/30 01:16:58;;;;;;;6.97;2.83;;;15.50;91.10;;;;;;4975134;28;20519;-55
2023/05/30 01:20:05;;;;;;;5.57;2.38;;;15.50;91.20;;;;;;4972680;28;20035;-59
2023/05/30 01:22:49;;;;;;;6.80;2.63;;;15.40;91.20;;;;;;4988642;28;20046;-59
2023/05/30 01:25:40;;;;;;;6.07;2.90;;;15.30;91.30;;;;;;4974884;28;20055;-58
2023/05/30 01:28:10;;;;;;;11.45;2.80;;;15.30;91.30;;;;;;4974817;28;20031;-59
2023/05/30 01:30:38;;;;;;;11.32;2.85;;;15.20;91.50;;;;;;4974406;28;20023;-55
2023/05/30 01:33:06;;;;;;;6.00;2.38;;;15.20;91.50;;;;;;4973296;28;20019;-53
2023/05/30 01:35:32;;;;;;;6.53;2.75;;;15.20;91.60;;;;;;4973867;28;20098;-58
2023/05/30 01:37:57;;;;;;;9.88;3.22;;;15.20;91.70;;;;;;4975334;28;20235;-57
2023/05/30 01:40:27;;;;;;;9.20;3.05;;;15.10;91.60;;;;;;4989778;28;20034;-57
2023/05/30 01:43:15;;;;;;;8.82;2.65;;;15.20;91.70;;;;;;4974594;28;20035;-56
2023/05/30 01:46:23;;;;;;;7.10;2.35;;;15.10;91.80;;;;;;4974711;28;20506;-57
2023/05/30 01:49:18;;;;;;;10.88;2.55;;;15.10;92.00;;;;;;4966959;28;20031;-55
2023/05/30 01:51:49;;;;;;;8.98;2.92;;;15.00;92.00;;;;;;4974426;28;20027;-55
2023/05/30 01:54:17;;;;;;;18.15;3.83;;;15.00;92.00;;;;;;4972953;28;20110;-56
2023/05/30 01:56:47;;;;;;;12.77;2.60;;;14.90;92.10;;;;;;4973087;28;20031;-56
2023/05/30 01:59:15;;;;;;;11.70;3.90;;;14.90;92.20;;;;;;4973089;28;20502;-57
2023/05/30 02:01:42;;;;;;;13.27;2.75;;;14.90;92.30;;;;;;4973815;28;20030;-56
2023/05/30 02:04:08;;;;;;;8.68;2.88;;;14.90;92.40;;;;;;4972625;28;20049;-59
2023/05/30 02:06:35;;;;;;;6.25;2.58;;;14.80;92.50;;;;;;4974483;28;20418;-56
2023/05/30 02:09:00;;;;;;;7.60;2.78;;;14.80;92.60;;;;;;4974024;28;20182;-57
2023/05/30 02:11:26;;;;;;;10.98;2.67;;;14.80;93.00;;;;;;4972399;28;20026;-58
2023/05/30 02:13:52;;;;;;;13.20;2.63;;;14.70;92.70;;;;;;4973784;28;20034;-57
2023/05/30 02:16:18;;;;;;;7.90;2.80;;;14.70;92.70;;;;;;4974315;28;20030;-61
2023/05/30 02:18:44;;;;;;;8.90;3.15;;;14.70;92.80;;;;;;4972831;28;20055;-57
2023/05/30 02:21:10;;;;;;;8.63;2.80;;;14.70;93.00;;;;;;4973661;28;20031;-57
2023/05/30 02:23:36;;;;;;;15.27;2.95;;;14.60;93.10;;;;;;4973450;28;20019;-55
2023/05/30 02:26:02;;;;;;;9.30;2.60;;;14.60;93.10;;;;;;4973827;28;20056;-58
2023/05/30 02:28:28;;;;;;;13.70;2.92;;;14.60;93.20;;;;;;4973677;28;20023;-58
2023/05/30 02:30:54;;;;;;;9.45;3.92;;;14.60;93.30;;;;;;4973302;28;20550;-56
2023/05/30 02:33:19;;;;;;;10.20;3.38;;;14.60;93.40;;;;;;4972120;28;20086;-56
2023/05/30 02:35:45;;;;;;;13.70;3.00;;;14.60;93.50;;;;;;4972278;28;20035;-58
2023/05/30 02:38:10;;;;;;;12.32;2.85;;;14.50;93.60;;;;;;4973488;28;20066;-55
2023/05/30 02:40:36;;;;;;;12.18;2.72;;;14.60;93.60;;;;;;4973097;28;20023;-57
2023/05/30 02:43:01;;;;;;;11.70;3.63;;;14.50;93.80;;;;;;4973248;28;20035;-57
2023/05/30 02:45:27;;;;;;;12.23;3.40;;;14.40;93.90;;;;;;4973400;28;20098;-58
2023/05/30 02:47:52;;;;;;;9.52;2.80;;;14.40;94.10;;;;;;4974448;28;20102;-57
2023/05/30 02:50:18;;;;;;;11.30;3.38;;;14.30;94.20;;;;;;4972779;28;20031;-57
2023/05/30 02:52:43;;;;;;;12.68;3.10;;;14.30;94.30;;;;;;4972803;28;20026;-57
2023/05/30 02:55:09;;;;;;;10.73;2.80;;;14.30;94.40;;;;;;4973215;28;20057;-58
2023/05/30 02:57:34;;;;;;;9.23;2.72;;;14.20;94.50;;;;;;4973253;28;20384;-58
2023/05/30 03:00:01;;;;;;;11.25;3.03;;;14.20;94.90;;;;;;4973075;28;20054;-58
2023/05/30 03:02:26;;;;;;;9.65;3.53;;;14.20;94.70;;;;;;4972783;28;20511;-54
2023/05/30 03:04:52;;;;;;;13.95;3.47;;;14.20;94.70;;;;;;4972981;28;20026;-56
2023/05/30 03:07:17;;;;;;;12.65;3.15;;;14.20;94.90;;;;;;4987981;28;20029;-57
2023/05/30 03:09:44;;;;;;;10.57;3.25;;;14.20;95.00;;;;;;4972682;28;20853;-56
2023/05/30 03:12:09;;;;;;;12.38;3.85;;;14.10;95.10;;;;;;4972892;28;20046;-55
2023/05/30 03:14:35;;;;;;;9.60;2.92;;;14.10;95.20;;;;;;4972731;28;20114;-53
2023/05/30 03:17:02;;;;;;;14.40;4.88;;;14.10;95.30;;;;;;4972938;28;20042;-58
2023/05/30 03:19:28;;;;;;;13.30;3.80;;;14.10;95.30;;;;;;4972462;28;20064;-54
2023/05/30 03:21:55;;;;;;;15.68;3.20;;;14.00;95.50;;;;;;4971376;28;20149;-55
2023/05/30 03:24:21;;;;;;;10.40;3.58;;;14.00;95.60;;;;;;4972606;28;20031;-58
2023/05/30 03:26:46;;;;;;;18.52;4.18;;;14.00;95.80;;;;;;4972843;28;20019;-56
2023/05/30 03:29:12;;;;;;;10.80;3.40;;;13.90;95.80;;;;;;4972724;28;20035;-54
2023/05/30 03:31:37;;;;;;;12.15;2.95;;;14.00;96.00;;;;;;4972246;28;20045;-58
2023/05/30 03:34:03;;;;;;;10.60;2.63;;;14.00;96.00;;;;;;4971256;28;20027;-57
2023/05/30 03:36:29;;;;;;;12.43;3.03;;;14.00;96.10;;;;;;4987738;28;20058;-57
2023/05/30 03:38:55;;;;;;;16.15;4.50;;;13.90;96.10;;;;;;4972871;28;20109;-57
2023/05/30 03:41:21;;;;;;;14.52;3.35;;;13.90;96.20;;;;;;4971532;28;20054;-53
2023/05/30 03:43:46;;;;;;;10.57;3.42;;;13.90;96.30;;;;;;4972390;28;20027;-55
2023/05/30 03:46:15;;;;;;;10.98;3.03;;;13.90;96.50;;;;;;4972498;28;20811;-55
2023/05/30 03:48:42;;;;;;;17.40;3.83;;;13.80;96.50;;;;;;4972774;28;20419;-57
2023/05/30 03:51:07;;;;;;;13.60;4.13;;;13.80;96.70;;;;;;4972228;28;20027;-54
2023/05/30 03:53:32;;;;;;;10.40;2.63;;;13.90;96.70;;;;;;4972289;28;20027;-57
2023/05/30 03:55:58;;;;;;;10.40;2.85;;;13.90;96.60;;;;;;4972298;28;20399;-57
2023/05/30 03:58:23;;;;;;;17.50;3.20;;;13.90;96.60;;;;;;4972689;28;20055;-57
2023/05/30 04:00:49;;;;;;;8.88;3.63;;;13.90;96.70;;;;;;4986844;28;20038;-58
2023/05/30 04:03:19;;;;;;;12.50;3.35;;;14.00;96.70;;;;;;4972279;28;20031;-57
2023/05/30 04:05:47;;;;;;;12.18;3.33;;;13.90;96.70;;;;;;4972345;28;20023;-59
2023/05/30 04:08:12;;;;;;;14.98;3.70;;;13.90;96.70;;;;;;4972432;28;20035;-58
2023/05/30 04:10:38;;;;;;;15.25;3.92;;;13.90;96.70;;;;;;4987041;28;20124;-58
2023/05/30 04:13:03;;;;;;;10.57;3.40;;;13.90;96.90;;;;;;4970467;28;20053;-56
2023/05/30 04:15:29;;;;;;;14.80;3.55;;;13.90;96.90;;;;;;4972245;28;20023;-54
2023/05/30 04:17:55;;;;;;;16.00;3.97;;;13.90;97.00;;;;;;4987246;28;20034;-57
2023/05/30 04:20:21;;;;;;;14.45;3.17;;;14.00;97.10;;;;;;4986797;28;20031;-55
2023/05/30 04:22:46;;;;;;;12.18;4.47;;;13.90;96.90;;;;;;4971960;28;20027;-54
2023/05/30 04:25:12;;;;;;;10.25;2.90;;;14.00;96.80;;;;;;4972146;28;20039;-54
2023/05/30 04:27:39;;;;;;;11.77;3.67;;;14.00;96.90;;;;;;4972099;28;20046;-58
2023/05/30 04:30:05;;;;;;;12.23;3.38;;;14.00;96.90;;;;;;4971712;28;20053;-58
2023/05/30 04:32:33;;;;;;;13.07;3.13;;;14.00;96.90;;;;;;4971648;28;20042;-55
2023/05/30 04:35:00;;;;;;;11.40;3.10;;;14.00;96.90;;;;;;4971045;28;20057;-56
2023/05/30 04:37:27;;;;;;;16.05;4.57;;;14.00;96.80;;;;;;4970656;28;20038;-54
2023/05/30 04:39:55;;;;;;;12.23;3.53;;;14.00;96.80;;;;;;4971900;28;20056;-52
2023/05/30 04:42:26;;;;;;;9.95;3.67;;;14.10;96.80;;;;;;4986404;28;20019;-55
2023/05/30 04:44:53;;;;;;;9.15;3.38;;;14.00;96.70;;;;;;4972052;28;20118;-55
2023/05/30 04:47:21;;;;;;;13.25;3.40;;;14.20;96.80;;;;;;4970864;28;20033;-54
2023/05/30 04:49:46;;;;;;;7.07;2.47;;;14.40;96.30;;;;;;4971940;28;20510;-56
2023/05/30 04:52:12;;;;;;;9.98;2.83;;;14.70;95.80;;;;;;4972776;28;20034;-57
2023/05/30 04:54:37;;;;;;;8.32;2.65;;;14.90;95.20;;;;;;4975513;28;20034;-54
2023/05/30 04:57:04;;;;;;;7.88;2.83;;;15.30;94.50;;;;;;4975580;28;20483;-57
2023/05/30 04:59:30;;;;;;;10.70;3.22;;;15.70;94.10;;;;;;4975124;28;20050;-58
2023/05/30 05:01:56;;;;;;;9.23;2.70;;;16.20;93.20;;;;;;4975951;28;20073;-55
2023/05/30 05:04:22;;;;;;;10.73;2.60;;;16.30;92.80;;;;;;4974984;28;20053;-56
2023/05/30 05:06:47;;;;;;;15.90;3.40;;;16.80;92.20;;;;;;4990378;28;20106;-52
2023/05/30 05:09:13;;;;;;;9.68;2.05;;;16.90;91.80;;;;;;4975433;28;20457;-53
2023/05/30 05:11:39;;;;;;;12.98;2.90;;;16.90;91.70;;;;;;4975466;28;20148;-52
2023/05/30 05:14:04;;;;;;;10.32;2.58;;;16.90;91.70;;;;;;4975730;28;20110;-56
2023/05/30 05:16:30;;;;;;;12.75;2.83;;;17.30;91.50;;;;;;4975663;28;20078;-58
2023/05/30 05:18:55;;;;;;;11.27;2.88;;;17.90;90.50;;;;;;4974947;28;20065;-58
2023/05/30 05:21:21;;;;;;;17.38;4.15;;;17.80;90.10;;;;;;4974621;28;20398;-57
2023/05/30 05:23:46;;;;;;;12.77;3.97;;;17.70;90.30;;;;;;4974490;28;20031;-55
2023/05/30 05:26:12;;;;;;;11.55;3.05;;;17.60;90.20;;;;;;4974873;28;20045;-58
2023/05/30 05:28:37;;;;;;;17.75;4.53;;;17.80;90.10;;;;;;4975128;28;20491;-58
2023/05/30 05:31:03;;;;;;;12.43;3.80;;;17.60;90.00;;;;;;4974418;28;20037;-58
2023/05/30 05:33:28;;;;;;;8.60;2.58;;;17.60;89.80;;;;;;4973550;28;20475;-59
2023/05/30 05:35:54;;;;;;;10.55;3.35;;;17.60;90.00;;;;;;4974650;28;20101;-58
2023/05/30 05:38:20;;;;;;;12.50;3.40;;;17.80;89.70;;;;;;4974562;28;20026;-55
2023/05/30 05:40:46;;;;;;;9.68;3.25;;;18.10;89.50;;;;;;4973991;28;20110;-59
2023/05/30 05:43:11;;;;;;;11.75;3.70;;;18.50;89.30;;;;;;4974349;28;20458;-60
2023/05/30 05:45:37;;;;;;;11.20;3.72;;;18.70;88.10;;;;;;4989199;28;20106;-57
2023/05/30 05:48:03;;;;;;;13.57;3.20;;;18.30;87.90;;;;;;4974471;28;20023;-58
2023/05/30 05:50:29;;;;;;;8.98;3.03;;;17.90;88.50;;;;;;4974164;28;20030;-57
2023/05/30 05:52:54;;;;;;;12.70;3.55;;;17.20;90.00;;;;;;4974001;28;20029;-58
2023/05/30 05:55:20;;;;;;;7.57;3.33;;;16.60;90.70;;;;;;4974402;28;20038;-58
2023/05/30 05:57:45;;;;;;;17.88;3.78;;;16.50;91.30;;;;;;4974465;28;20031;-58
2023/05/30 06:00:12;;;;;;;10.95;2.92;;;16.40;91.50;;;;;;4988887;28;20117;-58
2023/05/30 06:02:37;;;;;;;15.02;3.55;;;16.30;91.50;;;;;;4973867;28;20023;-57
2023/05/30 06:05:03;;;;;;;13.70;3.33;;;16.50;91.80;;;;;;4988583;28;20506;-58
2023/05/30 06:07:29;;;;;;;13.13;3.00;;;16.90;91.00;;;;;;4974180;28;20018;-55
2023/05/30 06:09:54;;;;;;;9.20;2.75;;;17.10;90.70;;;;;;4974071;28;20042;-56
2023/05/30 06:12:20;;;;;;;11.43;3.40;;;17.20;90.60;;;;;;4986763;23;20043;-57
2023/05/30 06:14:45;;;;;;;7.63;2.72;;;17.60;90.20;;;;;;4974966;28;20026;-58
2023/05/30 06:17:11;;;;;;;8.55;2.85;;;18.00;88.50;;;;;;4974178;28;20422;-54
2023/05/30 06:19:36;;;;;;;9.35;2.60;;;18.40;87.60;;;;;;4973331;28;20081;-54
2023/05/30 06:22:02;;;;;;;10.35;2.80;;;19.00;86.70;;;;;;4973781;28;20039;-52
2023/05/30 06:24:27;;;;;;;8.68;3.22;;;18.90;85.70;;;;;;4973409;28;20101;-56
2023/05/30 06:26:53;;;;;;;14.50;2.97;;;19.10;85.80;;;;;;4973875;28;20018;-54
2023/05/30 06:29:18;;;;;;;4.70;2.67;;;19.00;85.10;;;;;;4973808;28;20312;-56
2023/05/30 06:31:44;;;;;;;13.50;2.80;;;18.50;86.40;;;;;;4972221;28;20478;-55
2023/05/30 06:34:09;;;;;;;11.10;3.03;;;18.70;86.90;;;;;;4972213;28;20039;-58
2023/05/30 06:36:35;;;;;;;11.80;3.53;;;18.80;86.40;;;;;;4973703;28;20027;-56
2023/05/30 06:39:02;;;;;;;16.48;3.40;;;18.90;86.10;;;;;;4969795;28;20407;-58
2023/05/30 06:41:27;;;;;;;10.52;2.78;;;19.30;86.00;;;;;;4973216;28;20019;-57
2023/05/30 06:43:53;;;;;;;12.48;3.33;;;19.30;85.00;;;;;;4972849;28;20372;-55
2023/05/30 06:46:18;;;;;;;15.68;4.28;;;19.40;85.40;;;;;;4973543;28;20153;-57
2023/05/30 06:48:45;;;;;;;15.45;3.58;;;19.90;84.90;;;;;;4973368;28;20403;-57
2023/05/30 06:51:11;;;;;;;6.53;2.53;;;20.30;83.10;;;;;;4971553;28;20123;-56
2023/05/30 06:53:36;;;;;;;11.07;3.47;;;20.40;83.10;;;;;;4972642;28;20085;-59
2023/05/30 06:56:02;;;;;;;14.45;2.72;;;20.20;81.30;;;;;;4972856;28;20026;-56
2023/05/30 06:58:27;;;;;;;10.57;2.70;;;20.30;82.10;;;;;;4972255;28;20363;-57
2023/05/30 07:00:53;;;;;;;13.93;3.05;;;20.70;81.50;;;;;;4971066;28;20085;-57
2023/05/30 07:03:18;;;;;;;8.65;2.58;;;20.70;80.20;;;;;;4972938;28;20030;-58
2023/05/30 07:05:44;;;;;;;5.07;2.58;;;20.50;80.50;;;;;;4972961;28;20035;-56
2023/05/30 07:08:10;;;;;;;11.02;2.83;;;19.80;82.50;;;;;;4973227;28;20459;-55
2023/05/30 07:10:36;;;;;;;8.85;2.28;;;19.60;82.20;;;;;;4972699;28;20037;-54
2023/05/30 07:13:02;;;;;;;11.25;3.35;;;19.70;81.70;;;;;;4972064;28;20118;-53
2023/05/30 07:15:29;;;;;;;19.63;3.80;;;19.70;83.00;;;;;;4971909;28;20031;-55
2023/05/30 07:17:55;;;;;;;10.90;2.65;;;19.80;83.40;;;;;;4973471;28;20131;-57
2023/05/30 07:20:23;;;;;;;9.32;2.50;;;20.20;82.60;;;;;;4972736;28;20465;-55
2023/05/30 07:22:49;;;;;;;16.27;2.80;;;20.40;81.50;;;;;;4973005;28;20099;-58
2023/05/30 07:25:15;;;;;;;9.27;2.40;;;20.50;81.40;;;;;;4972572;28;20030;-56
2023/05/30 07:27:41;;;;;;;8.15;2.50;;;20.50;81.90;;;;;;4973031;28;20033;-57
2023/05/30 07:30:07;;;;;;;12.63;3.85;;;20.40;82.10;;;;;;4972727;28;20030;-55
2023/05/30 07:32:33;;;;;;;8.82;2.72;;;20.90;80.20;;;;;;4972474;28;20027;-52
2023/05/30 07:34:58;;;;;;;9.10;3.22;;;20.90;79.30;;;;;;4972428;28;20041;-49
2023/05/30 07:37:23;;;;;;;15.43;3.30;;;20.80;79.50;;;;;;4972706;28;20501;-53
2023/05/30 07:39:49;;;;;;;7.63;2.28;;;20.20;79.90;;;;;;4971033;28;20114;-51
2023/05/30 07:42:15;;;;;;;5.88;2.33;;;20.30;80.70;;;;;;4970824;28;20027;-50
2023/05/30 07:44:40;;;;;;;6.80;2.35;;;20.10;80.00;;;;;;4972771;28;20033;-52
2023/05/30 07:47:06;;;;;;;7.90;3.03;;;20.20;80.70;;;;;;4971338;28;20031;-50
2023/05/30 07:49:32;;;;;;;8.90;2.88;;;20.80;81.00;;;;;;4972146;28;20037;-49
2023/05/30 07:51:57;;;;;;;7.35;2.85;;;21.50;79.10;;;;;;4972540;28;20514;-49
2023/05/30 07:54:22;;;;;;;6.75;2.90;;;21.60;77.80;;;;;;4972478;28;20035;-50
2023/05/30 07:56:48;;;;;;;9.85;2.88;;;21.30;78.40;;;;;;4972213;28;20034;-48
2023/05/30 07:59:14;;;;;;;10.98;3.17;;;21.40;78.20;;;;;;4972511;28;20475;-48
2023/05/30 08:01:39;;;;;;;9.55;2.75;;;21.90;78.80;;;;;;4972161;28;20391;-49
2023/05/30 08:04:05;;;;;;;5.97;2.42;;;22.70;77.30;;;;;;4972483;28;20027;-53
2023/05/30 08:06:31;;;;;;;10.13;2.83;;;23.20;75.70;;;;;;4972833;28;20117;-46
2023/05/30 08:08:56;;;;;;;10.82;2.63;;;22.60;74.90;;;;;;4973103;28;20490;-50
2023/05/30 08:11:22;;;;;;;12.13;2.53;;;22.90;75.40;;;;;;4971360;28;20031;-49
2023/05/30 08:13:48;;;;;;;9.43;2.55;;;22.10;77.00;;;;;;4971860;28;20030;-51
2023/05/30 08:16:14;;;;;;;5.82;2.75;;;22.80;75.60;;;;;;4972393;28;20030;-53
2023/05/30 08:18:41;;;;;;;6.93;2.38;;;23.10;73.80;;;;;;4967719;28;20097;-54
2023/05/30 08:21:07;;;;;;;6.45;2.53;;;23.90;74.10;;;;;;4971816;28;20030;-52
2023/05/30 08:23:33;;;;;;;10.95;3.47;;;23.60;73.00;;;;;;4962519;28;20024;-53
2023/05/30 08:25:59;;;;;;;11.18;3.05;;;23.20;73.70;;;;;;4956253;28;20126;-56
2023/05/30 08:28:25;;;;;;;11.70;3.33;;;22.80;73.80;;;;;;4975600;28;20082;-53
2023/05/30 08:30:51;;;;;;;9.82;2.78;;;22.00;75.00;;;;;;4975925;28;20438;-51
2023/05/30 08:33:20;;;;;;;7.13;2.28;;;22.00;76.70;;;;;;4974515;28;20057;-53
2023/05/30 08:35:46;;;;;;;12.18;2.47;;;22.10;76.50;;;;;;4966033;28;20023;-53
2023/05/30 08:38:13;;;;;;;8.93;2.35;;;22.40;75.20;;;;;;4956750;28;20404;-51
2023/05/30 08:40:42;;;;;;;7.07;3.00;;;21.80;75.60;;;;;;4954785;29;20031;-49
2023/05/30 08:43:07;;;;;;;6.63;2.38;;;21.90;76.40;;;;;;4956234;28;20492;-50
2023/05/30 08:45:33;;;;;;;11.18;3.60;;;22.10;76.00;;;;;;4956635;28;20031;-51
2023/05/30 08:48:02;;;;;;;10.18;2.70;;;22.40;76.80;;;;;;4958279;28;20193;-52
2023/05/30 08:50:30;;;;;;;6.28;3.13;;;22.50;74.70;;;;;;4975332;28;20448;-45
2023/05/30 08:53:06;;;;;;;4.32;2.33;;;21.80;75.20;;;;;;4975037;28;20026;-45
2023/05/30 08:55:54;;;;;;;8.32;2.58;;;22.00;76.70;;;;;;4972842;28;20034;-49
2023/05/30 08:58:27;;;;;;;6.75;2.65;;;21.80;76.40;;;;;;4974834;28;20049;-49
2023/05/30 09:00:53;;;;;;;15.40;2.88;;;21.40;78.00;;;;;;4974212;28;20033;-52
2023/05/30 09:03:20;;;;;;;10.73;3.15;;;21.80;78.00;;;;;;4974883;28;20027;-48
2023/05/30 09:05:46;;;;;;;13.18;3.20;;;21.20;76.30;;;;;;4974094;28;20491;-47
2023/05/30 09:08:12;;;;;;;8.75;3.30;;;20.90;77.20;;;;;;4973916;28;20033;-48
2023/05/30 09:10:47;;;;;;;7.30;2.63;;;21.10;76.90;;;;;;4963181;28;20071;-49
2023/05/30 09:13:14;;;;;;;8.65;2.38;;;21.40;76.90;;;;;;4972718;28;20030;-50
2023/05/30 09:15:39;;;;;;;11.45;2.65;;;21.30;75.90;;;;;;4974866;28;20034;-50
2023/05/30 09:18:05;;;;;;;13.70;3.03;;;21.40;76.00;;;;;;4975029;28;20035;-54
2023/05/30 09:20:31;;;;;;;9.52;3.80;;;20.90;76.00;;;;;;4972846;28;20026;-51
2023/05/30 09:22:58;;;;;;;8.98;2.42;;;21.10;76.20;;;;;;4973920;28;20104;-56
2023/05/30 09:25:24;;;;;;;12.02;2.70;;;21.20;74.60;;;;;;4973208;28;20050;-52
2023/05/30 09:27:50;;;;;;;5.72;2.88;;;21.20;74.90;;;;;;4974565;28;20474;-49
2023/05/30 09:30:17;;;;;;;11.80;2.50;;;21.10;75.00;;;;;;4971904;28;20111;-50
2023/05/30 09:32:58;;;;;;;9.02;2.95;;;21.20;75.00;;;;;;4974080;28;20027;-53
2023/05/30 09:35:24;;;;;;;9.93;2.67;;;20.80;75.70;;;;;;4973055;28;20414;-52
2023/05/30 09:37:50;;;;;;;9.52;2.20;;;20.90;76.10;;;;;;4973040;28;20050;-56
2023/05/30 09:40:16;;;;;;;12.93;2.75;;;20.90;75.90;;;;;;4972014;28;20638;-58
2023/05/30 09:42:52;;;;;;;9.82;2.53;;;20.90;76.10;;;;;;4974057;28;20027;-50
2023/05/30 09:45:21;;;;;;;9.27;2.75;;;21.10;75.60;;;;;;4953755;28;20027;-52
2023/05/30 09:47:49;;;;;;;7.07;2.53;;;21.30;74.60;;;;;;4955284;28;20379;-53
2023/05/30 09:50:17;;;;;;;5.63;2.45;;;21.10;74.00;;;;;;4970694;28;20026;-53
2023/05/30 09:52:43;;;;;;;11.68;3.35;;;21.00;72.90;;;;;;4973721;28;20117;-57
2023/05/30 09:55:12;;;;;;;13.48;5.40;;;20.60;73.80;;;;;;4970436;28;20059;-50
2023/05/30 09:57:39;;;;;;;11.90;2.63;;;20.40;73.90;;;;;;4972417;28;20522;-51
2023/05/30 10:00:13;;;;;;;5.40;2.00;;;20.40;75.50;;;;;;4970692;28;20026;-52
2023/05/30 10:02:40;;;;;;;11.43;3.05;;;20.40;74.30;;;;;;4972511;28;20026;-46
2023/05/30 10:05:17;;;;;;;7.30;2.30;;;20.60;74.70;;;;;;4971199;28;20027;-51
2023/05/30 10:07:43;;;;;;;9.43;2.63;;;20.80;75.00;;;;;;4973152;28;20027;-52
2023/05/30 10:10:09;;;;;;;4.88;1.95;;;20.90;75.60;;;;;;4970299;28;20141;-51
2023/05/30 10:12:35;;;;;;;11.10;3.20;;;20.90;74.80;;;;;;4972169;28;20491;-51
2023/05/30 10:15:00;;;;;;;9.88;2.60;;;21.00;75.80;;;;;;4960073;28;20431;-52
2023/05/30 10:17:29;;;;;;;8.02;2.63;;;21.10;75.10;;;;;;4969866;28;20039;-52
2023/05/30 10:20:02;;;;;;;7.82;2.22;;;21.20;75.50;;;;;;4973074;28;20026;-54
2023/05/30 10:22:31;;;;;;;15.93;3.40;;;21.10;74.50;;;;;;4973030;28;20541;-52
2023/05/30 10:24:59;;;;;;;5.75;1.90;;;21.00;73.20;;;;;;4973587;28;20043;-51
2023/05/30 10:27:29;;;;;;;9.85;2.80;;;20.90;73.00;;;;;;4970067;28;20030;-52
2023/05/30 10:30:03;;;;;;;14.13;3.28;;;20.80;75.00;;;;;;4968423;28;20030;-53
2023/05/30 10:32:43;;;;;;;7.25;2.40;;;20.70;74.30;;;;;;4968825;28;20030;-50
2023/05/30 10:35:11;;;;;;;7.47;2.40;;;20.80;74.70;;;;;;4963916;28;20043;-52
2023/05/30 10:37:37;;;;;;;11.65;3.40;;;20.70;75.20;;;;;;4969348;28;20058;-50
2023/05/30 10:40:12;;;;;;;10.57;2.78;;;20.80;74.80;;;;;;4974498;28;20026;-49
2023/05/30 10:43:06;;;;;;;4.43;2.78;;;20.80;74.90;;;;;;4972398;28;20018;-47
2023/05/30 10:46:10;;;;;;;12.13;3.05;;;20.80;74.40;;;;;;4967654;28;20106;-50
2023/05/30 10:48:52;;;;;;;7.78;2.25;;;21.00;76.50;;;;;;4971429;28;20487;-52
2023/05/30 10:51:18;;;;;;;6.40;2.63;;;21.00;75.00;;;;;;4970922;28;20034;-50
2023/05/30 10:53:45;;;;;;;9.68;2.95;;;21.00;74.30;;;;;;4972661;28;20391;-50
2023/05/30 10:56:28;;;;;;;6.15;2.13;;;20.90;75.10;;;;;;4965399;28;20624;-50
2023/05/30 10:58:55;;;;;;;7.18;2.58;;;20.90;76.00;;;;;;4970866;28;20038;-51
2023/05/30 11:01:27;;;;;;;7.03;2.30;;;20.80;73.20;;;;;;4953248;28;20472;-49
2023/05/30 11:04:00;;;;;;;10.15;2.75;;;20.90;74.70;;;;;;4953364;28;20028;-49
2023/05/30 11:06:27;;;;;;;7.25;2.53;;;21.10;73.20;;;;;;4961212;28;20033;-46
2023/05/30 11:08:53;;;;;;;13.73;5.95;;;21.30;75.20;;;;;;4969488;28;20027;-49
2023/05/30 11:11:19;;;;;;;21.60;11.88;;;21.20;73.10;;;;;;4960273;28;20066;-49
2023/05/30 11:13:50;;;;;;;16.05;3.25;;;20.80;74.90;;;;;;4968897;28;20050;-49
2023/05/30 11:16:23;;;;;;;8.27;2.40;;;20.90;75.20;;;;;;4971460;28;20031;-48
2023/05/30 11:18:51;;;;;;;5.25;2.38;;;20.90;73.80;;;;;;4968238;28;20109;-48
2023/05/30 11:21:56;;;;;;;9.77;2.38;;;20.80;74.60;;;;;;4968964;28;20065;-50
2023/05/30 11:24:23;;;;;;;9.27;2.92;;;20.90;74.70;;;;;;4965893;28;20034;-53
2023/05/30 11:27:14;;;;;;;11.93;3.17;;;20.90;75.00;;;;;;4973072;28;20517;-53
2023/05/30 11:29:51;;;;;;;10.68;2.60;;;20.90;75.40;;;;;;4972384;28;20039;-47
2023/05/30 11:32:25;;;;;;;7.63;2.10;;;20.70;74.20;;;;;;4972297;28;20026;-49
2023/05/30 11:35:00;;;;;;;6.40;2.38;;;20.90;73.60;;;;;;4972807;28;20035;-50
2023/05/30 11:37:28;;;;;;;8.00;2.72;;;20.90;75.20;;;;;;4972517;28;20058;-47
2023/05/30 11:39:57;;;;;;;26.23;3.42;;;20.90;76.80;;;;;;4972321;28;20066;-47
2023/05/30 11:42:23;;;;;;;11.88;3.00;;;21.10;76.90;;;;;;4971256;28;20031;-46
2023/05/30 11:44:49;;;;;;;22.83;12.20;;;21.10;76.20;;;;;;4968943;28;20574;-48
2023/05/30 11:47:15;;;;;;;13.70;3.03;;;21.20;78.30;;;;;;4970184;28;20114;-49
2023/05/30 11:49:41;;;;;;;7.28;2.28;;;21.30;75.10;;;;;;4969756;28;20031;-52
2023/05/30 11:52:07;;;;;;;6.57;2.03;;;21.20;74.60;;;;;;4972376;28;20046;-48
2023/05/30 11:54:33;;;;;;;9.32;2.47;;;20.90;75.40;;;;;;4971263;28;20081;-48
2023/05/30 11:56:59;;;;;;;6.50;2.40;;;20.80;78.10;;;;;;4965229;28;20053;-48
2023/05/30 11:59:27;;;;;;;10.70;2.53;;;20.90;78.40;;;;;;4970701;28;20434;-51
2023/05/30 12:01:54;;;;;;;5.63;2.25;;;21.00;75.30;;;;;;4968238;28;20105;-50
2023/05/30 12:04:21;;;;;;;6.38;2.83;;;20.90;73.60;;;;;;4974830;28;20035;-57
2023/05/30 12:06:46;;;;;;;4.60;2.33;;;20.80;75.20;;;;;;4973974;28;20093;-58
2023/05/30 12:09:12;;;;;;;6.82;2.72;;;20.70;74.90;;;;;;4976308;28;20018;-57
2023/05/30 12:11:38;;;;;;;6.30;2.45;;;20.80;75.60;;;;;;4990204;22;20108;-50
2023/05/30 12:14:03;;;;;;;6.45;2.35;;;20.80;74.50;;;;;;5014250;28;20026;-50
2023/05/30 12:16:29;;;;;;;6.05;2.25;;;20.90;76.30;;;;;;5013570;28;20367;-51
2023/05/30 12:18:57;;;;;;;6.20;2.22;;;21.10;71.40;;;;;;5015240;28;20022;-53
2023/05/30 12:21:23;;;;;;;10.20;2.92;;;21.20;72.20;;;;;;5014857;28;20049;-53
2023/05/30 12:23:48;;;;;;;8.60;2.13;;;21.20;71.20;;;;;;5014884;28;20475;-55
2023/05/30 12:26:18;;;;;;;6.35;2.25;;;21.30;72.90;;;;;;5013826;28;20057;-48
2023/05/30 12:28:45;;;;;;;7.63;2.55;;;21.40;73.60;;;;;;5015351;28;20076;-50
2023/05/30 12:31:20;;;;;;;10.98;2.17;;;21.40;73.90;;;;;;5014769;28;20073;-51
2023/05/30 12:33:46;;;;;;;8.50;2.67;;;21.30;74.30;;;;;;5014481;28;20094;-51
2023/05/30 12:36:12;;;;;;;6.22;2.42;;;21.50;75.60;;;;;;5013490;28;20034;-50
2023/05/30 12:38:37;;;;;;;5.38;2.08;;;21.50;73.70;;;;;;5014636;28;20032;-52
2023/05/30 12:41:05;;;;;;;8.13;2.72;;;21.50;73.40;;;;;;5014850;28;20390;-49
2023/05/30 12:43:30;;;;;;;13.45;2.30;;;21.40;73.20;;;;;;5014512;28;20433;-50